createdAt,value
2022-11-26T00:00:21.639Z,72.20
2022-11-26T00:02:48.779Z,72.70
2022-11-26T00:05:16.638Z,72.80
2022-11-26T00:07:48.850Z,72.70
2022-11-26T00:10:20.400Z,72.70
2022-11-26T00:12:48.029Z,72.60
2022-11-26T00:15:30.391Z,73.40
2022-11-26T00:17:57.905Z,73.60
2022-11-26T00:20:30.090Z,73.70
2022-11-26T00:23:01.439Z,73.60
2022-11-26T00:25:50.859Z,74.10
2022-11-26T00:28:26.129Z,74.50
2022-11-26T00:30:56.061Z,74.70
2022-11-26T00:33:23.995Z,74.90
2022-11-26T00:36:01.852Z,74.80
2022-11-26T00:38:30.346Z,74.70
2022-11-26T00:40:58.531Z,75.10
2022-11-26T00:43:25.275Z,75.20
2022-11-26T00:45:52.143Z,74.90
2022-11-26T00:48:19.303Z,74.70
2022-11-26T00:50:51.772Z,75.10
2022-11-26T00:53:22.452Z,75.20
2022-11-26T00:55:50.813Z,75.20
2022-11-26T00:58:44.990Z,74.70
2022-11-26T01:01:14.716Z,74.80
2022-11-26T01:03:42.971Z,75.20
2022-11-26T01:06:35.341Z,74.80
2022-11-26T01:09:04.614Z,75.10
2022-11-26T01:11:31.420Z,75.70
2022-11-26T01:13:58.274Z,75.50
2022-11-26T01:16:31.577Z,75.50
2022-11-26T01:19:00.466Z,75.70
2022-11-26T01:21:29.500Z,76.20
2022-11-26T01:23:56.677Z,76.20
2022-11-26T01:26:27.463Z,76.20
2022-11-26T01:28:55.905Z,76.00
2022-11-26T01:31:25.011Z,76.20
2022-11-26T01:33:52.454Z,76.10
2022-11-26T01:36:29.584Z,76.20
2022-11-26T01:39:17.429Z,75.80
2022-11-26T01:42:02.135Z,75.70
2022-11-26T01:44:31.702Z,75.50
2022-11-26T01:46:59.484Z,74.80
2022-11-26T01:49:38.395Z,76.10
2022-11-26T01:52:21.365Z,75.90
2022-11-26T01:54:50.843Z,76.30
2022-11-26T01:57:27.540Z,76.70
2022-11-26T01:59:59.282Z,78.50
2022-11-26T02:02:28.338Z,79.60
2022-11-26T02:04:55.151Z,78.60
2022-11-26T02:07:22.038Z,78.10
2022-11-26T02:09:49.153Z,78.50
2022-11-26T02:12:15.973Z,79.40
2022-11-26T02:14:44.574Z,79.50
2022-11-26T02:17:35.887Z,79.70
2022-11-26T02:20:39.158Z,80.40
2022-11-26T02:23:26.383Z,80.50
2022-11-26T02:26:15.185Z,80.70
2022-11-26T02:29:03.451Z,80.60
2022-11-26T02:31:42.554Z,81.20
2022-11-26T02:34:12.425Z,81.30
2022-11-26T02:36:53.504Z,81.60
2022-11-26T02:39:23.923Z,80.80
2022-11-26T02:42:04.025Z,80.60
2022-11-26T02:44:43.618Z,81.00
2022-11-26T02:47:14.152Z,81.40
2022-11-26T02:49:42.800Z,81.30
2022-11-26T02:52:11.267Z,81.50
2022-11-26T02:54:40.189Z,81.10
2022-11-26T02:57:11.800Z,80.50
2022-11-26T02:59:39.734Z,80.30
2022-11-26T03:02:32.284Z,80.20
2022-11-26T03:05:01.526Z,80.50
2022-11-26T03:07:31.003Z,80.20
2022-11-26T03:10:00.793Z,80.50
2022-11-26T03:12:28.374Z,80.60
2022-11-26T03:14:55.388Z,80.60
2022-11-26T03:17:22.401Z,80.30
2022-11-26T03:19:49.255Z,80.30
2022-11-26T03:22:16.419Z,79.90
2022-11-26T03:24:43.610Z,80.00
2022-11-26T03:27:10.379Z,79.90
2022-11-26T03:29:37.095Z,79.70
2022-11-26T03:32:04.305Z,79.40
2022-11-26T03:34:31.266Z,79.10
2022-11-26T03:36:57.995Z,78.80
2022-11-26T03:39:24.766Z,78.40
2022-11-26T03:41:51.452Z,77.90
2022-11-26T03:44:18.201Z,77.90
2022-11-26T03:46:44.955Z,77.40
2022-11-26T03:49:11.761Z,77.10
2022-11-26T03:51:38.502Z,76.30
2022-11-26T03:54:05.315Z,75.40
2022-11-26T03:56:32.057Z,74.90
2022-11-26T03:58:58.806Z,75.10
2022-11-26T04:01:25.786Z,75.20
2022-11-26T04:03:52.626Z,74.70
2022-11-26T04:06:19.323Z,74.80
2022-11-26T04:08:46.134Z,74.60
2022-11-26T04:11:14.159Z,75.20
2022-11-26T04:13:40.953Z,74.60
2022-11-26T04:16:08.410Z,74.00
2022-11-26T04:18:35.501Z,74.30
2022-11-26T04:21:02.247Z,74.60
2022-11-26T04:23:28.974Z,74.30
2022-11-26T04:25:55.739Z,74.00
2022-11-26T04:28:22.457Z,74.20
2022-11-26T04:30:49.327Z,74.50
2022-11-26T04:33:16.208Z,75.10
2022-11-26T04:35:42.998Z,75.10
2022-11-26T04:38:09.891Z,75.30
2022-11-26T04:40:36.840Z,74.90
2022-11-26T04:43:03.839Z,74.40
2022-11-26T04:45:30.704Z,74.50
2022-11-26T04:47:57.449Z,74.30
2022-11-26T04:50:24.482Z,74.00
2022-11-26T04:52:51.242Z,74.40
2022-11-26T04:55:18.612Z,75.20
2022-11-26T04:57:48.703Z,75.60
2022-11-26T05:00:17.511Z,77.10
2022-11-26T05:02:44.761Z,79.40
2022-11-26T05:05:12.229Z,80.90
2022-11-26T05:07:39.085Z,82.50
2022-11-26T05:10:07.435Z,83.80
2022-11-26T05:12:34.378Z,85.40
2022-11-26T05:15:01.280Z,86.30
2022-11-26T05:17:28.177Z,86.90
2022-11-26T05:19:54.933Z,87.50
2022-11-26T05:22:21.661Z,87.40
2022-11-26T05:24:48.505Z,87.50
2022-11-26T05:27:15.310Z,87.00
2022-11-26T05:29:42.027Z,86.40
2022-11-26T05:32:08.852Z,86.90
2022-11-26T05:34:35.784Z,86.90
2022-11-26T05:37:02.680Z,87.20
2022-11-26T05:39:29.645Z,87.30
2022-11-26T05:41:56.356Z,87.70
2022-11-26T05:44:23.119Z,86.40
2022-11-26T05:46:50.303Z,86.90
2022-11-26T05:49:17.171Z,87.10
2022-11-26T05:51:43.850Z,87.20
2022-11-26T05:54:14.899Z,86.90
2022-11-26T05:56:43.296Z,86.70
2022-11-26T05:59:10.519Z,87.10
2022-11-26T06:01:37.307Z,86.80
2022-11-26T06:04:04.242Z,86.60
2022-11-26T06:06:31.460Z,86.50
2022-11-26T06:08:58.309Z,86.50
2022-11-26T06:11:25.149Z,87.00
2022-11-26T06:13:51.917Z,87.30
2022-11-26T06:16:18.718Z,87.60
2022-11-26T06:18:45.598Z,87.30
2022-11-26T06:21:12.344Z,87.80
2022-11-26T06:23:40.004Z,87.80
2022-11-26T06:26:11.145Z,88.10
2022-11-26T06:28:38.894Z,88.50
2022-11-26T06:31:06.251Z,88.90
2022-11-26T06:33:33.005Z,88.80
2022-11-26T06:36:01.221Z,88.90
2022-11-26T06:38:28.733Z,89.20
2022-11-26T06:41:06.381Z,89.00
2022-11-26T06:43:33.549Z,89.00
2022-11-26T06:46:05.695Z,88.30
2022-11-26T06:48:33.416Z,87.80
2022-11-26T06:51:15.186Z,88.00
2022-11-26T06:53:42.297Z,88.50
2022-11-26T06:56:18.408Z,88.40
2022-11-26T06:58:47.538Z,88.90
2022-11-26T07:01:20.705Z,89.20
2022-11-26T07:03:47.888Z,88.70
2022-11-26T07:06:26.948Z,89.00
2022-11-26T07:08:55.597Z,89.20
2022-11-26T07:11:23.762Z,88.40
2022-11-26T07:13:51.191Z,88.80
2022-11-26T07:16:18.443Z,88.10
2022-11-26T07:18:55.197Z,88.20
2022-11-26T07:21:26.066Z,87.70
2022-11-26T07:23:53.111Z,87.60
2022-11-26T07:28:49.303Z,86.60
2022-11-26T07:31:18.765Z,85.80
2022-11-26T07:33:46.100Z,85.50
2022-11-26T07:36:22.634Z,85.30
2022-11-26T07:38:49.696Z,83.80
2022-11-26T07:41:19.163Z,82.20
2022-11-26T07:43:46.637Z,81.00
2022-11-26T07:46:16.570Z,79.60
2022-11-26T07:48:44.412Z,77.40
2022-11-26T07:51:20.185Z,75.80
2022-11-26T07:53:47.676Z,74.90
2022-11-26T07:56:14.907Z,74.20
2022-11-26T07:58:41.978Z,73.00
2022-11-26T08:01:17.304Z,73.20
2022-11-26T08:03:46.932Z,72.70
2022-11-26T08:06:16.668Z,73.00
2022-11-26T08:08:43.454Z,73.00
2022-11-26T08:11:14.931Z,72.20
2022-11-26T08:13:42.301Z,72.30
2022-11-26T08:16:09.491Z,72.70
2022-11-26T08:18:36.678Z,72.60
2022-11-26T08:21:04.025Z,72.60
2022-11-26T08:23:31.724Z,72.50
2022-11-26T08:26:21.663Z,73.00
2022-11-26T08:28:46.552Z,73.20
2022-11-26T08:31:15.946Z,73.20
2022-11-26T08:33:43.171Z,72.60
2022-11-26T08:36:11.374Z,71.90
2022-11-26T08:38:38.840Z,72.00
2022-11-26T08:41:09.484Z,71.00
2022-11-26T08:44:04.481Z,71.50
2022-11-26T08:46:25.833Z,71.60
2022-11-26T08:48:55.590Z,71.70
2022-11-26T08:51:22.830Z,71.80
2022-11-26T08:53:49.644Z,72.00
2022-11-26T08:56:16.396Z,71.60
2022-11-26T08:58:45.501Z,71.20
2022-11-26T09:01:16.280Z,70.90
2022-11-26T09:03:43.707Z,71.10
2022-11-26T09:06:11.162Z,71.60
2022-11-26T09:08:57.211Z,71.40
2022-11-26T09:11:25.709Z,71.90
2022-11-26T09:13:53.500Z,71.90
2022-11-26T09:16:22.089Z,71.80
2022-11-26T09:18:48.906Z,71.40
2022-11-26T09:21:15.693Z,71.10
2022-11-26T09:23:42.466Z,70.90
2022-11-26T09:26:09.303Z,70.60
2022-11-26T09:28:36.145Z,70.90
2022-11-26T09:31:03.923Z,70.60
2022-11-26T09:33:31.892Z,70.60
2022-11-26T09:36:10.797Z,70.00
2022-11-26T09:38:37.749Z,70.50
2022-11-26T09:41:16.380Z,70.60
2022-11-26T09:44:01.857Z,70.00
2022-11-26T09:47:10.967Z,69.40
2022-11-26T09:49:46.507Z,69.50
2022-11-26T09:52:18.538Z,69.70
2022-11-26T09:54:47.054Z,69.90
2022-11-26T09:57:41.277Z,69.70
2022-11-26T10:00:29.939Z,69.20
2022-11-26T10:02:58.020Z,68.70
2022-11-26T10:05:52.413Z,68.10
2022-11-26T10:08:46.863Z,68.00
2022-11-26T10:11:30.361Z,67.60
2022-11-26T10:14:05.738Z,67.40
2022-11-26T10:16:44.238Z,66.90
2022-11-26T10:19:22.671Z,66.70
2022-11-26T10:21:59.591Z,65.50
2022-11-26T10:24:36.196Z,65.50
2022-11-26T10:27:16.316Z,65.10
2022-11-26T10:29:48.173Z,66.30
2022-11-26T10:32:30.683Z,66.50
2022-11-26T10:34:58.321Z,66.20
2022-11-26T10:37:27.445Z,66.30
2022-11-26T10:40:01.012Z,64.70
2022-11-26T10:42:43.920Z,64.20
2022-11-26T10:45:22.613Z,64.20
2022-11-26T10:47:49.550Z,64.10
2022-11-26T10:50:46.135Z,63.50
2022-11-26T10:53:06.829Z,63.10
2022-11-26T10:55:41.245Z,61.40
2022-11-26T10:58:17.085Z,59.50
2022-11-26T11:00:49.731Z,59.20
2022-11-26T11:03:59.714Z,58.50
2022-11-26T11:06:20.371Z,58.40
2022-11-26T11:08:49.031Z,57.50
2022-11-26T11:11:28.603Z,57.40
2022-11-26T11:13:58.597Z,57.60
2022-11-26T11:16:39.097Z,58.50
2022-11-26T11:19:20.256Z,58.20
2022-11-26T11:21:48.521Z,58.00
2022-11-26T11:24:16.539Z,57.70
2022-11-26T11:26:45.909Z,58.20
2022-11-26T11:29:38.279Z,58.10
2022-11-26T11:32:26.273Z,59.10
2022-11-26T11:34:53.010Z,59.50
2022-11-26T11:37:21.916Z,59.00
2022-11-26T11:40:17.247Z,59.00
2022-11-26T11:42:50.783Z,59.00
2022-11-26T11:45:41.533Z,58.20
2022-11-26T11:48:32.476Z,58.90
2022-11-26T11:51:14.291Z,58.90
2022-11-26T11:54:01.957Z,58.80
2022-11-26T11:56:41.638Z,59.00
2022-11-26T11:59:37.231Z,58.40
2022-11-26T12:02:19.281Z,58.60
2022-11-26T12:05:03.811Z,58.30
2022-11-26T12:07:46.623Z,58.20
2022-11-26T12:10:25.383Z,58.40
2022-11-26T12:12:56.657Z,59.20
2022-11-26T12:15:30.104Z,59.60
2022-11-26T12:18:04.740Z,59.70
2022-11-26T12:20:46.147Z,59.40
2022-11-26T12:23:24.501Z,59.20
2022-11-26T12:25:59.016Z,59.30
2022-11-26T12:28:35.427Z,58.10
2022-11-26T12:31:13.448Z,57.50
2022-11-26T12:33:55.755Z,57.60
2022-11-26T12:36:51.241Z,56.90
2022-11-26T12:39:33.174Z,57.70
2022-11-26T12:42:37.590Z,56.80
2022-11-26T12:45:35.182Z,54.80
2022-11-26T12:48:10.436Z,55.10
2022-11-26T12:50:47.439Z,56.10
2022-11-26T12:53:55.879Z,57.30
2022-11-26T12:56:35.033Z,56.90
2022-11-26T12:59:22.652Z,56.20
2022-11-26T13:01:49.459Z,55.30
2022-11-26T13:07:15.979Z,54.30
2022-11-26T13:10:05.411Z,54.10
2022-11-26T13:12:59.350Z,53.90
2022-11-26T13:15:49.769Z,53.80
2022-11-26T13:18:30.659Z,54.20
2022-11-26T13:21:34.687Z,54.40
2022-11-26T13:24:27.266Z,53.70
2022-11-26T13:27:17.676Z,54.90
2022-11-26T13:30:07.751Z,54.90
2022-11-26T13:33:08.054Z,54.80
2022-11-26T13:36:02.712Z,54.30
2022-11-26T13:38:58.720Z,53.40
2022-11-26T13:41:45.539Z,53.90
2022-11-26T13:44:35.983Z,53.30
2022-11-26T13:47:21.752Z,53.60
2022-11-26T13:50:07.083Z,54.80
2022-11-26T13:52:39.729Z,53.70
2022-11-26T13:55:24.804Z,53.70
2022-11-26T13:57:55.942Z,53.80
2022-11-26T14:00:34.805Z,54.00
2022-11-26T14:03:02.888Z,54.60
2022-11-26T14:05:51.829Z,53.80
2022-11-26T14:08:38.103Z,54.10
2022-11-26T14:11:05.664Z,53.90
2022-11-26T14:13:32.433Z,54.00
2022-11-26T14:16:08.107Z,54.00
2022-11-26T14:18:57.811Z,54.30
2022-11-26T14:21:24.771Z,54.20
2022-11-26T14:23:56.959Z,53.30
2022-11-26T14:26:38.277Z,53.00
2022-11-26T14:29:08.144Z,52.90
2022-11-26T14:31:37.843Z,52.80
2022-11-26T14:34:24.509Z,52.70
2022-11-26T14:36:59.673Z,52.90
2022-11-26T14:39:28.235Z,53.00
2022-11-26T14:42:03.798Z,53.10
2022-11-26T14:44:33.084Z,53.30
2022-11-26T14:47:07.742Z,52.90
2022-11-26T14:49:41.516Z,53.10
2022-11-26T14:52:17.055Z,54.00
2022-11-26T14:54:48.418Z,53.50
2022-11-26T14:57:24.025Z,53.70
2022-11-26T14:59:58.067Z,54.00
2022-11-26T15:02:27.600Z,54.30
2022-11-26T15:05:02.483Z,54.40
2022-11-26T15:07:30.497Z,54.90
2022-11-26T15:10:02.583Z,55.50
2022-11-26T15:12:29.902Z,55.70
2022-11-26T15:14:59.924Z,55.70
2022-11-26T15:17:32.228Z,56.00
2022-11-26T15:20:02.886Z,56.50
2022-11-26T15:22:39.236Z,56.80
2022-11-26T15:25:15.574Z,57.20
2022-11-26T15:27:53.577Z,57.60
2022-11-26T15:30:29.876Z,58.60
2022-11-26T15:33:04.797Z,58.40
2022-11-26T15:35:33.320Z,57.80
2022-11-26T15:38:00.091Z,58.60
2022-11-26T15:40:49.477Z,58.20
2022-11-26T15:43:33.441Z,58.30
2022-11-26T15:46:04.842Z,58.60
2022-11-26T15:48:51.446Z,59.00
2022-11-26T15:51:24.604Z,59.30
2022-11-26T15:53:51.983Z,59.90
2022-11-26T15:56:22.636Z,60.90
2022-11-26T15:58:55.556Z,61.80
2022-11-26T16:01:25.118Z,62.80
2022-11-26T16:03:54.136Z,62.50
2022-11-26T16:06:34.529Z,62.80
2022-11-26T16:09:04.332Z,63.30
2022-11-26T16:11:34.368Z,63.80
2022-11-26T16:14:32.382Z,64.10
2022-11-26T16:17:08.014Z,64.90
2022-11-26T16:19:36.086Z,65.40
2022-11-26T16:22:04.964Z,65.80
2022-11-26T16:24:42.584Z,66.40
2022-11-26T16:27:20.610Z,67.20
2022-11-26T16:29:47.601Z,67.90
2022-11-26T16:32:16.644Z,68.40
2022-11-26T16:34:44.228Z,68.90
2022-11-26T16:37:26.144Z,69.50
2022-11-26T16:40:13.830Z,70.90
2022-11-26T16:42:40.649Z,71.40
2022-11-26T16:45:09.312Z,71.80
2022-11-26T16:47:41.352Z,72.80
2022-11-26T16:50:20.760Z,73.60
2022-11-26T16:52:48.098Z,73.20
2022-11-26T16:55:17.169Z,73.60
2022-11-26T16:57:48.173Z,74.50
2022-11-26T17:00:18.403Z,74.90
2022-11-26T17:02:46.405Z,75.20
2022-11-26T17:05:13.498Z,75.30
2022-11-26T17:07:46.528Z,75.60
2022-11-26T17:10:22.223Z,75.90
2022-11-26T17:12:50.027Z,76.30
2022-11-26T17:15:17.599Z,76.40
2022-11-26T17:17:44.992Z,76.50
2022-11-26T17:20:20.741Z,76.80
2022-11-26T17:22:47.528Z,77.20
2022-11-26T17:25:15.109Z,77.40
2022-11-26T17:27:42.689Z,77.00
2022-11-26T17:30:24.227Z,77.70
2022-11-26T17:32:51.237Z,77.60
2022-11-26T17:35:18.218Z,77.20
2022-11-26T17:37:45.057Z,77.50
2022-11-26T17:40:20.440Z,78.30
2022-11-26T17:42:47.586Z,78.40
2022-11-26T17:45:15.200Z,79.20
2022-11-26T17:47:42.522Z,78.30
2022-11-26T17:50:22.859Z,78.10
2022-11-26T17:52:49.957Z,78.00
2022-11-26T17:55:17.908Z,78.20
2022-11-26T17:57:44.906Z,78.80
2022-11-26T18:00:16.308Z,78.40
2022-11-26T18:02:43.876Z,78.60
2022-11-26T18:05:11.435Z,78.90
2022-11-26T18:07:39.439Z,79.00
2022-11-26T18:10:09.512Z,79.10
2022-11-26T18:12:36.354Z,78.80
2022-11-26T18:15:04.154Z,78.80
2022-11-26T18:17:31.187Z,78.20
2022-11-26T18:19:58.026Z,78.30
2022-11-26T18:22:26.344Z,77.80
2022-11-26T18:24:56.876Z,78.20
2022-11-26T18:27:30.564Z,78.30
2022-11-26T18:30:00.480Z,79.30
2022-11-26T18:32:27.220Z,79.60
2022-11-26T18:34:54.221Z,79.40
2022-11-26T18:37:21.004Z,79.40
2022-11-26T18:39:47.807Z,80.20
2022-11-26T18:42:36.154Z,80.10
2022-11-26T18:45:02.358Z,81.00
2022-11-26T18:47:29.159Z,81.40
2022-11-26T18:49:56.029Z,81.40
2022-11-26T18:52:22.801Z,80.70
2022-11-26T18:54:49.674Z,80.90
2022-11-26T18:57:16.361Z,81.20
2022-11-26T18:59:43.274Z,81.00
2022-11-26T19:02:11.012Z,81.30
2022-11-26T19:04:38.977Z,81.00
2022-11-26T19:07:05.954Z,81.50
2022-11-26T19:09:32.642Z,80.90
2022-11-26T19:11:59.389Z,81.30
2022-11-26T19:14:26.231Z,81.30
2022-11-26T19:16:53.064Z,82.00
2022-11-26T19:19:20.168Z,81.80
2022-11-26T19:21:47.162Z,81.40
2022-11-26T19:24:14.948Z,81.10
2022-11-26T19:26:42.150Z,81.40
2022-11-26T19:29:11.168Z,81.40
2022-11-26T19:31:39.827Z,81.10
2022-11-26T19:34:12.176Z,81.20
2022-11-26T19:36:39.081Z,80.70
2022-11-26T19:39:06.605Z,79.80
2022-11-26T19:41:33.649Z,79.10
2022-11-26T19:44:01.223Z,78.80
2022-11-26T19:46:28.409Z,78.80
2022-11-26T19:48:55.909Z,79.10
2022-11-26T19:51:25.022Z,79.20
2022-11-26T19:53:54.024Z,79.30
2022-11-26T19:56:26.861Z,79.80
2022-11-26T19:58:54.341Z,80.30
2022-11-26T20:01:22.474Z,80.10
2022-11-26T20:03:49.966Z,81.00
2022-11-26T20:06:21.985Z,81.20
2022-11-26T20:08:50.467Z,81.10
2022-11-26T20:11:18.604Z,80.90
2022-11-26T20:13:46.929Z,80.90
2022-11-26T20:16:17.857Z,80.90
2022-11-26T20:18:45.531Z,80.60
2022-11-26T20:21:16.627Z,81.40
2022-11-26T20:23:43.418Z,80.70
2022-11-26T20:26:14.590Z,80.60
2022-11-26T20:28:41.363Z,80.60
2022-11-26T20:31:08.228Z,80.20
2022-11-26T20:33:35.650Z,79.90
2022-11-26T20:36:07.306Z,79.80
2022-11-26T20:38:35.380Z,80.00
2022-11-26T20:41:09.689Z,80.20
2022-11-26T20:43:37.108Z,79.70
2022-11-26T20:46:06.386Z,79.90
2022-11-26T20:48:34.982Z,80.30
2022-11-26T20:51:03.166Z,80.20
2022-11-26T20:53:30.771Z,79.70
2022-11-26T20:55:58.082Z,79.00
2022-11-26T20:58:26.116Z,79.70
2022-11-26T21:00:54.379Z,80.60
2022-11-26T21:03:22.208Z,80.80
2022-11-26T21:05:49.667Z,80.60
2022-11-26T21:08:17.233Z,80.40
2022-11-26T21:10:43.998Z,80.40
2022-11-26T21:13:14.002Z,80.30
2022-11-26T21:15:42.173Z,80.30
2022-11-26T21:18:09.044Z,80.00
2022-11-26T21:20:42.761Z,80.00
2022-11-26T21:23:11.788Z,79.10
2022-11-26T21:25:41.167Z,79.00
2022-11-26T21:28:08.547Z,79.20
2022-11-26T21:30:35.883Z,79.40
2022-11-26T21:33:08.677Z,80.00
2022-11-26T21:35:36.405Z,80.40
2022-11-26T21:38:04.231Z,80.40
2022-11-26T21:40:31.218Z,81.90
2022-11-26T21:42:58.069Z,80.90
2022-11-26T21:45:25.483Z,80.90
2022-11-26T21:47:52.791Z,80.30
2022-11-26T21:50:20.218Z,81.10
2022-11-26T21:52:47.127Z,81.00
2022-11-26T21:55:13.936Z,81.30
2022-11-26T21:57:40.806Z,80.90
2022-11-26T22:00:08.530Z,81.00
2022-11-26T22:02:35.424Z,81.10
2022-11-26T22:05:02.231Z,81.10
2022-11-26T22:07:30.182Z,80.50
2022-11-26T22:09:57.113Z,79.50
2022-11-26T22:12:23.857Z,78.50
2022-11-26T22:14:50.591Z,79.20
2022-11-26T22:17:17.410Z,79.60
2022-11-26T22:19:44.725Z,79.40
2022-11-26T22:22:11.445Z,79.80
2022-11-26T22:24:38.166Z,79.60
2022-11-26T22:27:05.039Z,79.70
2022-11-26T22:29:31.763Z,80.10
2022-11-26T22:31:58.541Z,79.90
2022-11-26T22:34:27.329Z,80.30
2022-11-26T22:36:54.063Z,80.00
2022-11-26T22:39:20.824Z,80.10
2022-11-26T22:41:48.918Z,80.70
2022-11-26T22:44:16.651Z,80.40
2022-11-26T22:46:44.071Z,80.70
2022-11-26T22:49:13.912Z,81.30
2022-11-26T22:51:41.119Z,81.40
2022-11-26T22:54:09.963Z,81.40
2022-11-26T22:56:37.971Z,81.70
2022-11-26T22:59:06.707Z,82.30
2022-11-26T23:01:35.374Z,83.40
2022-11-26T23:04:04.884Z,84.60
2022-11-26T23:06:33.777Z,86.60
2022-11-26T23:09:03.234Z,87.30
2022-11-26T23:11:34.124Z,88.20
2022-11-26T23:14:02.210Z,89.60
2022-11-26T23:16:29.265Z,90.30
2022-11-26T23:18:57.145Z,90.50
2022-11-26T23:21:33.021Z,90.20
2022-11-26T23:23:59.879Z,90.40
2022-11-26T23:26:29.833Z,90.50
2022-11-26T23:28:57.845Z,91.00
2022-11-26T23:31:28.233Z,91.30
2022-11-26T23:33:55.701Z,91.40
2022-11-26T23:36:23.433Z,91.50
2022-11-26T23:38:50.349Z,91.70
2022-11-26T23:41:17.390Z,91.70
2022-11-26T23:43:44.750Z,91.50
2022-11-26T23:46:14.227Z,91.50
2022-11-26T23:48:41.405Z,91.50
2022-11-26T23:51:13.920Z,91.40
2022-11-26T23:53:42.921Z,91.50
2022-11-26T23:56:19.587Z,91.70
2022-11-26T23:58:51.178Z,91.80
